sensor_id;sensor_type;location;lat;lon;timestamp;pressure;altitude;pressure_sealevel;temperature;humidity
21588;BME280;10956;48.878;13.316;2023-01-31T00:00:39;94392.25;;;0.99;100.00
21588;BME280;10956;48.878;13.316;2023-01-31T00:03:05;94391.25;;;1.00;100.00
21588;BME280;10956;48.878;13.316;2023-01-31T00:05:30;94387.66;;;1.01;100.00
21588;BME280;10956;48.878;13.316;2023-01-31T00:07:55;94388.06;;;0.98;100.00
21588;BME280;10956;48.878;13.316;2023-01-31T00:10:21;94381.47;;;1.02;100.00
21588;BME280;10956;48.878;13.316;2023-01-31T00:12:46;94391.66;;;0.96;100.00
21588;BME280;10956;48.878;13.316;2023-01-31T00:15:12;94392.84;;;1.01;100.00
21588;BME280;10956;48.878;13.316;2023-01-31T00:17:40;94381.47;;;1.02;100.00
21588;BME280;10956;48.878;13.316;2023-01-31T00:20:06;94397.25;;;1.00;100.00
21588;BME280;10956;48.878;13.316;2023-01-31T00:22:32;94398.03;;;1.01;100.00
21588;BME280;10956;48.878;13.316;2023-01-31T00:24:57;94402.41;;;1.07;100.00
21588;BME280;10956;48.878;13.316;2023-01-31T00:27:23;94402.44;;;0.93;100.00
21588;BME280;10956;48.878;13.316;2023-01-31T00:29:48;94407.63;;;0.87;100.00
21588;BME280;10956;48.878;13.316;2023-01-31T00:32:14;94396.66;;;0.85;100.00
21588;BME280;10956;48.878;13.316;2023-01-31T00:34:39;94406.03;;;0.92;100.00
21588;BME280;10956;48.878;13.316;2023-01-31T00:37:04;94416.81;;;0.96;100.00
21588;BME280;10956;48.878;13.316;2023-01-31T00:39:30;94404.81;;;1.02;100.00
21588;BME280;10956;48.878;13.316;2023-01-31T00:41:55;94410.81;;;1.02;100.00
21588;BME280;10956;48.878;13.316;2023-01-31T00:44:20;94402.81;;;1.04;100.00
21588;BME280;10956;48.878;13.316;2023-01-31T00:46:46;94390.84;;;1.03;100.00
21588;BME280;10956;48.878;13.316;2023-01-31T00:49:11;94401.63;;;1.00;100.00
21588;BME280;10956;48.878;13.316;2023-01-31T00:51:36;94398.06;;;0.87;100.00
21588;BME280;10956;48.878;13.316;2023-01-31T00:54:02;94396.84;;;0.96;100.00
21588;BME280;10956;48.878;13.316;2023-01-31T00:56:27;94400.03;;;0.85;100.00
21588;BME280;10956;48.878;13.316;2023-01-31T00:58:53;94386.47;;;0.90;100.00
21588;BME280;10956;48.878;13.316;2023-01-31T01:01:26;94409.03;;;0.96;100.00
21588;BME280;10956;48.878;13.316;2023-01-31T01:03:53;94398.03;;;1.01;100.00
21588;BME280;10956;48.878;13.316;2023-01-31T01:06:19;94399.25;;;0.91;100.00
21588;BME280;10956;48.878;13.316;2023-01-31T01:08:45;94405.63;;;0.82;100.00
21588;BME280;10956;48.878;13.316;2023-01-31T01:11:16;94403.03;;;0.95;100.00
21588;BME280;10956;48.878;13.316;2023-01-31T01:13:42;94406.03;;;0.99;100.00
21588;BME280;10956;48.878;13.316;2023-01-31T01:16:10;94407.63;;;0.93;100.00
21588;BME280;10956;48.878;13.316;2023-01-31T01:18:36;94401.25;;;0.83;100.00
21588;BME280;10956;48.878;13.316;2023-01-31T01:21:10;94392.06;;;0.93;100.00
21588;BME280;10956;48.878;13.316;2023-01-31T01:23:37;94393.06;;;0.92;100.00
21588;BME280;10956;48.878;13.316;2023-01-31T01:26:03;94390.88;;;0.83;100.00
21588;BME280;10956;48.878;13.316;2023-01-31T01:28:32;94399.03;;;0.86;100.00
21588;BME280;10956;48.878;13.316;2023-01-31T01:30:58;94396.06;;;0.89;100.00
21588;BME280;10956;48.878;13.316;2023-01-31T01:33:23;94402.25;;;0.82;100.00
21588;BME280;10956;48.878;13.316;2023-01-31T01:35:49;94412.41;;;0.90;100.00
21588;BME280;10956;48.878;13.316;2023-01-31T01:38:14;94411.00;;;1.01;100.00
21588;BME280;10956;48.878;13.316;2023-01-31T01:40:39;94402.63;;;0.99;100.00
21588;BME280;10956;48.878;13.316;2023-01-31T01:43:07;94401.25;;;0.89;100.00
21588;BME280;10956;48.878;13.316;2023-01-31T01:45:33;94394.84;;;0.85;100.00
21588;BME280;10956;48.878;13.316;2023-01-31T01:48:03;94395.66;;;0.86;100.00
21588;BME280;10956;48.878;13.316;2023-01-31T01:50:41;94391.47;;;0.85;100.00
21588;BME280;10956;48.878;13.316;2023-01-31T01:53:12;94391.66;;;0.83;100.00
21588;BME280;10956;48.878;13.316;2023-01-31T01:55:49;94393.06;;;0.79;100.00
21588;BME280;10956;48.878;13.316;2023-01-31T01:58:32;94397.06;;;0.88;100.00
21588;BME280;10956;48.878;13.316;2023-01-31T02:01:03;94390.47;;;0.92;100.00
21588;BME280;10956;48.878;13.316;2023-01-31T02:03:29;94401.63;;;0.86;100.00
21588;BME280;10956;48.878;13.316;2023-01-31T02:05:57;94402.84;;;0.90;100.00
21588;BME280;10956;48.878;13.316;2023-01-31T02:08:26;94413.63;;;0.87;100.00
21588;BME280;10956;48.878;13.316;2023-01-31T02:10:56;94415.59;;;0.99;100.00
21588;BME280;10956;48.878;13.316;2023-01-31T02:13:23;94414.00;;;0.84;100.00
21588;BME280;10956;48.878;13.316;2023-01-31T02:15:49;94417.59;;;0.77;100.00
21588;BME280;10956;48.878;13.316;2023-01-31T02:18:15;94425.59;;;0.82;100.00
21588;BME280;10956;48.878;13.316;2023-01-31T02:34:44;94452.72;;;0.99;100.00
21588;BME280;10956;48.878;13.316;2023-01-31T02:38:36;94430.78;;;0.88;100.00
21588;BME280;10956;48.878;13.316;2023-01-31T02:40:37;94435.56;;;0.91;100.00
21588;BME280;10956;48.878;13.316;2023-01-31T02:43:17;94443.56;;;0.96;100.00
21588;BME280;10956;48.878;13.316;2023-01-31T02:46:07;94433.56;;;0.93;100.00
21588;BME280;10956;48.878;13.316;2023-01-31T02:48:47;94439.75;;;0.92;100.00
21588;BME280;10956;48.878;13.316;2023-01-31T02:51:24;94445.53;;;0.94;100.00
21588;BME280;10956;48.878;13.316;2023-01-31T02:53:54;94439.56;;;0.87;100.00
21588;BME280;10956;48.878;13.316;2023-01-31T02:56:32;94437.97;;;0.93;100.00
21588;BME280;10956;48.878;13.316;2023-01-31T02:59:04;94432.97;;;0.91;100.00
21588;BME280;10956;48.878;13.316;2023-01-31T03:01:40;94439.16;;;0.97;100.00
21588;BME280;10956;48.878;13.316;2023-01-31T03:04:11;94441.16;;;0.95;100.00
21588;BME280;10956;48.878;13.316;2023-01-31T03:14:31;94467.28;;;0.80;100.00
21588;BME280;10956;48.878;13.316;2023-01-31T03:19:54;94463.09;;;0.79;100.00
21588;BME280;10956;48.878;13.316;2023-01-31T03:22:28;94465.09;;;0.90;100.00
21588;BME280;10956;48.878;13.316;2023-01-31T03:24:55;94476.69;;;0.81;100.00
21588;BME280;10956;48.878;13.316;2023-01-31T03:27:21;94485.88;;;0.90;100.00
21588;BME280;10956;48.878;13.316;2023-01-31T03:29:48;94484.66;;;1.00;100.00
21588;BME280;10956;48.878;13.316;2023-01-31T03:32:23;94483.28;;;0.97;100.00
21588;BME280;10956;48.878;13.316;2023-01-31T03:34:50;94507.03;;;1.01;100.00
21588;BME280;10956;48.878;13.316;2023-01-31T03:37:22;94495.44;;;0.90;100.00
21588;BME280;10956;48.878;13.316;2023-01-31T03:39:59;94514.59;;;0.89;100.00
21588;BME280;10956;48.878;13.316;2023-01-31T03:42:37;94501.81;;;0.74;100.00
21588;BME280;10956;48.878;13.316;2023-01-31T03:45:28;94505.03;;;0.89;100.00
21588;BME280;10956;48.878;13.316;2023-01-31T03:47:58;94500.03;;;0.94;100.00
21588;BME280;10956;48.878;13.316;2023-01-31T03:50:37;94489.03;;;0.73;100.00
21588;BME280;10956;48.878;13.316;2023-01-31T03:53:12;94499.22;;;0.81;100.00
21588;BME280;10956;48.878;13.316;2023-01-31T03:55:43;94510.97;;;0.70;100.00
21588;BME280;10956;48.878;13.316;2023-01-31T03:58:12;94551.69;;;0.76;100.00
21588;BME280;10956;48.878;13.316;2023-01-31T04:00:41;94536.16;;;0.83;100.00
21588;BME280;10956;48.878;13.316;2023-01-31T04:03:37;94545.72;;;0.82;100.00
21588;BME280;10956;48.878;13.316;2023-01-31T04:06:05;94534.16;;;0.78;100.00
21588;BME280;10956;48.878;13.316;2023-01-31T04:08:31;94549.13;;;0.83;100.00
21588;BME280;10956;48.878;13.316;2023-01-31T04:10:58;94549.31;;;0.81;100.00
21588;BME280;10956;48.878;13.316;2023-01-31T04:13:24;94564.50;;;0.84;100.00
21588;BME280;10956;48.878;13.316;2023-01-31T04:15:49;94568.09;;;0.96;100.00
21588;BME280;10956;48.878;13.316;2023-01-31T04:18:15;94564.53;;;1.04;100.00
21588;BME280;10956;48.878;13.316;2023-01-31T04:20:40;94549.75;;;1.05;100.00
21588;BME280;10956;48.878;13.316;2023-01-31T04:23:06;94546.56;;;1.03;100.00
21588;BME280;10956;48.878;13.316;2023-01-31T04:25:31;94543.94;;;0.96;100.00
21588;BME280;10956;48.878;13.316;2023-01-31T04:27:57;94542.94;;;0.90;100.00
21588;BME280;10956;48.878;13.316;2023-01-31T04:30:22;94536.34;;;0.88;100.00
21588;BME280;10956;48.878;13.316;2023-01-31T04:32:47;94529.38;;;0.88;100.00
21588;BME280;10956;48.878;13.316;2023-01-31T04:35:13;94543.16;;;0.89;100.00
21588;BME280;10956;48.878;13.316;2023-01-31T04:37:38;94561.31;;;0.95;100.00
21588;BME280;10956;48.878;13.316;2023-01-31T04:40:04;94558.13;;;1.00;100.00
21588;BME280;10956;48.878;13.316;2023-01-31T04:42:30;94564.94;;;1.08;100.00
21588;BME280;10956;48.878;13.316;2023-01-31T04:44:55;94563.34;;;1.07;100.00
21588;BME280;10956;48.878;13.316;2023-01-31T04:47:20;94568.50;;;1.00;100.00
21588;BME280;10956;48.878;13.316;2023-01-31T04:49:46;94558.53;;;1.04;100.00
21588;BME280;10956;48.878;13.316;2023-01-31T04:52:11;94575.91;;;1.10;100.00
21588;BME280;10956;48.878;13.316;2023-01-31T04:54:37;94570.91;;;1.02;100.00
21588;BME280;10956;48.878;13.316;2023-01-31T04:57:02;94579.88;;;0.99;100.00
21588;BME280;10956;48.878;13.316;2023-01-31T04:59:28;94584.88;;;1.01;100.00
21588;BME280;10956;48.878;13.316;2023-01-31T05:01:53;94591.66;;;1.02;100.00
21588;BME280;10956;48.878;13.316;2023-01-31T05:04:19;94587.09;;;1.04;100.00
21588;BME280;10956;48.878;13.316;2023-01-31T05:06:46;94594.06;;;0.96;100.00
21588;BME280;10956;48.878;13.316;2023-01-31T05:09:12;94595.44;;;0.92;100.00
21588;BME280;10956;48.878;13.316;2023-01-31T05:11:37;94591.66;;;0.95;100.00
21588;BME280;10956;48.878;13.316;2023-01-31T05:14:02;94590.47;;;0.98;100.00
21588;BME280;10956;48.878;13.316;2023-01-31T05:16:28;94595.06;;;0.95;100.00
21588;BME280;10956;48.878;13.316;2023-01-31T05:18:53;94602.81;;;0.89;100.00
21588;BME280;10956;48.878;13.316;2023-01-31T05:21:19;94610.41;;;0.90;100.00
21588;BME280;10956;48.878;13.316;2023-01-31T05:23:44;94595.63;;;0.91;100.00
21588;BME280;10956;48.878;13.316;2023-01-31T05:26:10;94584.47;;;0.97;100.00
21588;BME280;10956;48.878;13.316;2023-01-31T05:28:35;94574.47;;;0.87;100.00
21588;BME280;10956;48.878;13.316;2023-01-31T05:31:03;94594.63;;;0.85;100.00
21588;BME280;10956;48.878;13.316;2023-01-31T05:33:29;94583.66;;;0.83;100.00
21588;BME280;10956;48.878;13.316;2023-01-31T05:35:56;94582.66;;;0.84;100.00
21588;BME280;10956;48.878;13.316;2023-01-31T05:38:22;94579.63;;;0.74;100.00
21588;BME280;10956;48.878;13.316;2023-01-31T05:40:48;94582.63;;;0.71;100.00
21588;BME280;10956;48.878;13.316;2023-01-31T05:43:14;94579.00;;;0.66;100.00
21588;BME280;10956;48.878;13.316;2023-01-31T05:45:39;94574.03;;;0.64;100.00
21588;BME280;10956;48.878;13.316;2023-01-31T05:48:05;94567.88;;;0.78;100.00
21588;BME280;10956;48.878;13.316;2023-01-31T05:50:31;94570.88;;;0.82;100.00
21588;BME280;10956;48.878;13.316;2023-01-31T05:52:58;94583.66;;;0.83;100.00
21588;BME280;10956;48.878;13.316;2023-01-31T05:55:24;94582.41;;;0.66;100.00
21588;BME280;10956;48.878;13.316;2023-01-31T05:57:53;94569.59;;;0.58;100.00
21588;BME280;10956;48.878;13.316;2023-01-31T06:00:19;94572.81;;;0.60;100.00
21588;BME280;10956;48.878;13.316;2023-01-31T06:02:45;94578.38;;;0.57;100.00
21588;BME280;10956;48.878;13.316;2023-01-31T06:05:12;94567.63;;;0.60;100.00
21588;BME280;10956;48.878;13.316;2023-01-31T06:07:38;94577.81;;;0.68;100.00
21588;BME280;10956;48.878;13.316;2023-01-31T06:10:05;94585.22;;;0.71;100.00
21588;BME280;10956;48.878;13.316;2023-01-31T06:12:31;94594.19;;;0.69;100.00
21588;BME280;10956;48.878;13.316;2023-01-31T06:14:56;94595.38;;;0.66;100.00
21588;BME280;10956;48.878;13.316;2023-01-31T06:17:21;94593.56;;;0.67;100.00
21588;BME280;10956;48.878;13.316;2023-01-31T06:19:50;94592.78;;;0.66;100.00
21588;BME280;10956;48.878;13.316;2023-01-31T06:22:16;94595.59;;;0.71;100.00
21588;BME280;10956;48.878;13.316;2023-01-31T06:24:42;94593.78;;;0.65;100.00
21588;BME280;10956;48.878;13.316;2023-01-31T06:27:08;94604.38;;;0.70;100.00
21588;BME280;10956;48.878;13.316;2023-01-31T06:29:33;94613.69;;;0.58;100.00
21588;BME280;10956;48.878;13.316;2023-01-31T06:31:59;94620.66;;;0.51;100.00
21588;BME280;10956;48.878;13.316;2023-01-31T06:34:24;94630.63;;;0.54;100.00
21588;BME280;10956;48.878;13.316;2023-01-31T06:36:49;94638.97;;;0.43;100.00
21588;BME280;10956;48.878;13.316;2023-01-31T06:39:15;94632.00;;;0.50;100.00
21588;BME280;10956;48.878;13.316;2023-01-31T06:41:42;94631.84;;;0.58;100.00
21588;BME280;10956;48.878;13.316;2023-01-31T06:44:07;94626.25;;;0.54;100.00
21588;BME280;10956;48.878;13.316;2023-01-31T06:46:33;94633.06;;;0.62;100.00
21588;BME280;10956;48.878;13.316;2023-01-31T06:48:58;94634.84;;;0.55;100.00
21588;BME280;10956;48.878;13.316;2023-01-31T06:51:24;94643.22;;;0.57;100.00
21588;BME280;10956;48.878;13.316;2023-01-31T06:53:49;94644.66;;;0.66;100.00
21588;BME280;10956;48.878;13.316;2023-01-31T06:56:18;94647.09;;;0.74;100.00
21588;BME280;10956;48.878;13.316;2023-01-31T06:58:43;94651.84;;;0.71;100.00
21588;BME280;10956;48.878;13.316;2023-01-31T07:01:11;94651.84;;;0.71;100.00
21588;BME280;10956;48.878;13.316;2023-01-31T07:03:37;94652.78;;;0.56;100.00
21588;BME280;10956;48.878;13.316;2023-01-31T07:06:04;94661.78;;;0.60;100.00
21588;BME280;10956;48.878;13.316;2023-01-31T07:08:30;94668.59;;;0.68;100.00
21588;BME280;10956;48.878;13.316;2023-01-31T07:10:56;94680.97;;;0.66;100.00
21588;BME280;10956;48.878;13.316;2023-01-31T07:13:22;94678.97;;;0.68;100.00
21588;BME280;10956;48.878;13.316;2023-01-31T07:15:48;94674.38;;;0.63;100.00
21588;BME280;10956;48.878;13.316;2023-01-31T07:18:13;94689.81;;;0.78;100.00
21588;BME280;10956;48.878;13.316;2023-01-31T07:20:39;94670.66;;;0.79;100.00
21588;BME280;10956;48.878;13.316;2023-01-31T07:23:05;94680.97;;;0.66;100.00
21588;BME280;10956;48.878;13.316;2023-01-31T07:25:30;94677.00;;;0.70;100.00
21588;BME280;10956;48.878;13.316;2023-01-31T07:27:58;94687.75;;;0.67;100.00
21588;BME280;10956;48.878;13.316;2023-01-31T07:30:24;94685.50;;;0.57;100.00
21588;BME280;10956;48.878;13.316;2023-01-31T07:32:50;94669.38;;;0.62;100.00
21588;BME280;10956;48.878;13.316;2023-01-31T07:35:16;94675.41;;;0.69;100.00
21588;BME280;10956;48.878;13.316;2023-01-31T07:37:41;94682.78;;;0.72;100.00
21588;BME280;10956;48.878;13.316;2023-01-31T07:40:12;94687.81;;;0.80;100.00
21588;BME280;10956;48.878;13.316;2023-01-31T07:42:38;94684.59;;;0.78;100.00
21588;BME280;10956;48.878;13.316;2023-01-31T07:45:04;94693.44;;;0.90;100.00
21588;BME280;10956;48.878;13.316;2023-01-31T07:47:30;94684.28;;;0.94;100.00
21588;BME280;10956;48.878;13.316;2023-01-31T07:49:56;94704.47;;;1.06;100.00
21588;BME280;10956;48.878;13.316;2023-01-31T07:52:21;94710.88;;;1.10;100.00
21588;BME280;10956;48.878;13.316;2023-01-31T07:54:47;94702.28;;;1.03;100.00
21588;BME280;10956;48.878;13.316;2023-01-31T07:57:12;94714.66;;;1.01;100.00
21588;BME280;10956;48.878;13.316;2023-01-31T07:59:37;94725.03;;;1.01;100.00
21588;BME280;10956;48.878;13.316;2023-01-31T08:02:03;94720.19;;;0.91;100.00
21588;BME280;10956;48.878;13.316;2023-01-31T08:04:47;94732.34;;;0.84;100.00
21588;BME280;10956;48.878;13.316;2023-01-31T08:07:12;94726.13;;;0.78;100.00
21588;BME280;10956;48.878;13.316;2023-01-31T08:09:38;94726.34;;;0.83;100.00
21588;BME280;10956;48.878;13.316;2023-01-31T08:12:04;94720.78;;;0.86;100.00
21588;BME280;10956;48.878;13.316;2023-01-31T08:14:30;94716.69;;;1.12;100.00
21588;BME280;10956;48.878;13.316;2023-01-31T08:16:57;94720.34;;;1.31;100.00
21588;BME280;10956;48.878;13.316;2023-01-31T08:19:22;94726.13;;;1.26;100.00
21588;BME280;10956;48.878;13.316;2023-01-31T08:21:48;94715.94;;;1.31;100.00
21588;BME280;10956;48.878;13.316;2023-01-31T08:24:13;94724.75;;;1.37;100.00
21588;BME280;10956;48.878;13.316;2023-01-31T08:26:41;94717.53;;;1.32;100.00
21588;BME280;10956;48.878;13.316;2023-01-31T08:29:06;94729.13;;;1.36;100.00
21588;BME280;10956;48.878;13.316;2023-01-31T08:31:32;94721.75;;;1.40;100.00
21588;BME280;10956;48.878;13.316;2023-01-31T08:33:57;94723.94;;;1.36;100.00
21588;BME280;10956;48.878;13.316;2023-01-31T08:36:26;94731.94;;;1.41;100.00
21588;BME280;10956;48.878;13.316;2023-01-31T08:38:52;94727.19;;;1.51;100.00
21588;BME280;10956;48.878;13.316;2023-01-31T08:41:20;94730.81;;;1.64;100.00
21588;BME280;10956;48.878;13.316;2023-01-31T08:43:46;94719.44;;;1.78;100.00
21588;BME280;10956;48.878;13.316;2023-01-31T08:46:13;94734.03;;;1.92;100.00
21588;BME280;10956;48.878;13.316;2023-01-31T08:48:39;94736.81;;;1.84;100.00
21588;BME280;10956;48.878;13.316;2023-01-31T08:51:07;94738.44;;;1.85;100.00
21588;BME280;10956;48.878;13.316;2023-01-31T08:53:35;94736.63;;;1.92;100.00
21588;BME280;10956;48.878;13.316;2023-01-31T08:56:03;94734.63;;;2.01;100.00
21588;BME280;10956;48.878;13.316;2023-01-31T08:58:34;94738.03;;;2.01;100.00
21588;BME280;10956;48.878;13.316;2023-01-31T09:01:04;94744.84;;;1.96;100.00
21588;BME280;10956;48.878;13.316;2023-01-31T09:03:30;94737.44;;;1.86;100.00
21588;BME280;10956;48.878;13.316;2023-01-31T09:06:00;94735.81;;;1.72;100.00
21588;BME280;10956;48.878;13.316;2023-01-31T09:08:25;94738.00;;;1.61;100.00
21588;BME280;10956;48.878;13.316;2023-01-31T09:10:55;94745.97;;;1.53;100.00
21588;BME280;10956;48.878;13.316;2023-01-31T09:13:21;94736.16;;;1.49;100.00
21588;BME280;10956;48.878;13.316;2023-01-31T09:16:06;94748.16;;;1.56;100.00
21588;BME280;10956;48.878;13.316;2023-01-31T09:18:33;94743.22;;;1.75;100.00
21588;BME280;10956;48.878;13.316;2023-01-31T09:23:30;94747.81;;;1.73;100.00
21588;BME280;10956;48.878;13.316;2023-01-31T09:25:56;94752.00;;;1.74;100.00
21588;BME280;10956;48.878;13.316;2023-01-31T09:28:22;94744.03;;;1.82;100.00
21588;BME280;10956;48.878;13.316;2023-01-31T09:30:48;94723.22;;;1.82;100.00
21588;BME280;10956;48.878;13.316;2023-01-31T09:33:15;94738.03;;;1.81;100.00
21588;BME280;10956;48.878;13.316;2023-01-31T09:35:40;94727.63;;;1.88;100.00
21588;BME280;10956;48.878;13.316;2023-01-31T09:38:06;94736.41;;;1.74;100.00
21588;BME280;10956;48.878;13.316;2023-01-31T09:40:33;94734.41;;;1.76;100.00
21588;BME280;10956;48.878;13.316;2023-01-31T09:43:01;94726.63;;;1.76;100.00
21588;BME280;10956;48.878;13.316;2023-01-31T09:45:32;94726.03;;;1.87;100.00
21588;BME280;10956;48.878;13.316;2023-01-31T09:48:01;94742.03;;;1.97;100.00
21588;BME280;10956;48.878;13.316;2023-01-31T09:52:58;94732.84;;;1.88;100.00
21588;BME280;10956;48.878;13.316;2023-01-31T09:55:50;94743.63;;;2.05;100.00
21588;BME280;10956;48.878;13.316;2023-01-31T10:09:52;94750.41;;;1.73;100.00
21588;BME280;10956;48.878;13.316;2023-01-31T10:12:23;94746.00;;;1.67;100.00
21588;BME280;10956;48.878;13.316;2023-01-31T10:15:09;94752.41;;;1.71;100.00
21588;BME280;10956;48.878;13.316;2023-01-31T10:17:42;94733.81;;;1.74;100.00
21588;BME280;10956;48.878;13.316;2023-01-31T10:20:18;94719.03;;;1.94;100.00
21588;BME280;10956;48.878;13.316;2023-01-31T10:22:51;94719.25;;;2.19;100.00
21588;BME280;10956;48.878;13.316;2023-01-31T10:25:22;94721.25;;;2.23;100.00
21588;BME280;10956;48.878;13.316;2023-01-31T10:27:53;94721.63;;;2.20;100.00
21588;BME280;10956;48.878;13.316;2023-01-31T10:30:24;94719.63;;;2.36;100.00
21588;BME280;10956;48.878;13.316;2023-01-31T10:32:59;94731.25;;;2.13;100.00
21588;BME280;10956;48.878;13.316;2023-01-31T10:35:32;94722.84;;;2.05;100.00
21588;BME280;10956;48.878;13.316;2023-01-31T10:38:25;94726.44;;;1.97;100.00
21588;BME280;10956;48.878;13.316;2023-01-31T10:40:58;94719.84;;;1.88;100.00
21588;BME280;10956;48.878;13.316;2023-01-31T10:43:35;94718.44;;;1.92;100.00
21588;BME280;10956;48.878;13.316;2023-01-31T10:46:10;94721.25;;;1.97;100.00
21588;BME280;10956;48.878;13.316;2023-01-31T10:48:37;94726.03;;;1.93;100.00
21588;BME280;10956;48.878;13.316;2023-01-31T10:51:16;94721.63;;;1.81;100.00
21588;BME280;10956;48.878;13.316;2023-01-31T10:56:35;94716.41;;;1.68;100.00
21588;BME280;10956;48.878;13.316;2023-01-31T10:59:10;94716.00;;;1.51;100.00
21588;BME280;10956;48.878;13.316;2023-01-31T11:01:37;94714.78;;;1.53;100.00
21588;BME280;10956;48.878;13.316;2023-01-31T11:04:30;94707.59;;;1.55;100.00
21588;BME280;10956;48.878;13.316;2023-01-31T11:06:59;94713.63;;;1.63;100.00
21588;BME280;10956;48.878;13.316;2023-01-31T11:09:28;94700.03;;;1.60;100.00
21588;BME280;10956;48.878;13.316;2023-01-31T11:11:57;94701.59;;;1.48;100.00
21588;BME280;10956;48.878;13.316;2023-01-31T11:14:23;94690.41;;;1.54;100.00
21588;BME280;10956;48.878;13.316;2023-01-31T11:16:58;94685.25;;;1.68;100.00
21588;BME280;10956;48.878;13.316;2023-01-31T11:19:38;94670.84;;;1.72;100.00
21588;BME280;10956;48.878;13.316;2023-01-31T11:22:05;94671.25;;;1.82;100.00
21588;BME280;10956;48.878;13.316;2023-01-31T11:24:33;94674.47;;;1.84;100.00
21588;BME280;10956;48.878;13.316;2023-01-31T11:27:04;94670.84;;;1.85;100.00
21588;BME280;10956;48.878;13.316;2023-01-31T11:29:35;94669.44;;;2.02;100.00
21588;BME280;10956;48.878;13.316;2023-01-31T11:32:05;94672.47;;;1.99;100.00
21588;BME280;10956;48.878;13.316;2023-01-31T11:34:35;94669.66;;;1.94;100.00
21588;BME280;10956;48.878;13.316;2023-01-31T11:37:05;94657.66;;;2.06;100.00
21588;BME280;10956;48.878;13.316;2023-01-31T11:39:35;94649.63;;;2.28;100.00
21588;BME280;10956;48.878;13.316;2023-01-31T11:42:14;94647.16;;;2.52;100.00
21588;BME280;10956;48.878;13.316;2023-01-31T11:45:17;94640.69;;;2.68;100.00
21588;BME280;10956;48.878;13.316;2023-01-31T11:47:48;94641.28;;;2.70;100.00
21588;BME280;10956;48.878;13.316;2023-01-31T11:50:24;94629.66;;;2.79;100.00
21588;BME280;10956;48.878;13.316;2023-01-31T11:52:58;94629.41;;;2.87;100.00
21588;BME280;10956;48.878;13.316;2023-01-31T11:55:25;94624.69;;;2.71;100.00
21588;BME280;10956;48.878;13.316;2023-01-31T11:57:57;94617.94;;;2.57;100.00
21588;BME280;10956;48.878;13.316;2023-01-31T12:00:26;94623.34;;;2.49;100.00
21588;BME280;10956;48.878;13.316;2023-01-31T12:03:01;94608.97;;;2.40;100.00
21588;BME280;10956;48.878;13.316;2023-01-31T12:05:41;94600.00;;;2.36;100.00
21588;BME280;10956;48.878;13.316;2023-01-31T12:08:36;94596.63;;;2.22;100.00
21588;BME280;10956;48.878;13.316;2023-01-31T12:11:21;94606.41;;;2.26;100.00
21588;BME280;10956;48.878;13.316;2023-01-31T12:13:51;94604.78;;;2.39;100.00
21588;BME280;10956;48.878;13.316;2023-01-31T12:16:22;94607.22;;;2.27;100.00
21588;BME280;10956;48.878;13.316;2023-01-31T12:33:07;94597.66;;;2.01;100.00
21588;BME280;10956;48.878;13.316;2023-01-31T12:51:50;94574.69;;;1.85;100.00
21588;BME280;10956;48.878;13.316;2023-01-31T12:55:03;94565.09;;;1.92;100.00
21588;BME280;10956;48.878;13.316;2023-01-31T13:05:31;94558.31;;;1.91;100.00
21588;BME280;10956;48.878;13.316;2023-01-31T13:08:04;94559.09;;;1.98;100.00
21588;BME280;10956;48.878;13.316;2023-01-31T13:10:42;94555.28;;;1.94;100.00
21588;BME280;10956;48.878;13.316;2023-01-31T13:13:16;94569.66;;;2.03;100.00
21588;BME280;10956;48.878;13.316;2023-01-31T13:15:49;94570.50;;;1.90;100.00
21588;BME280;10956;48.878;13.316;2023-01-31T13:18:16;94570.91;;;1.81;100.00
21588;BME280;10956;48.878;13.316;2023-01-31T13:20:54;94571.50;;;1.83;100.00
21588;BME280;10956;48.878;13.316;2023-01-31T13:23:36;94589.91;;;1.75;100.00
21588;BME280;10956;48.878;13.316;2023-01-31T13:26:08;94574.94;;;1.64;100.00
21588;BME280;10956;48.878;13.316;2023-01-31T13:28:56;94595.31;;;1.40;100.00
21588;BME280;10956;48.878;13.316;2023-01-31T13:31:27;94594.50;;;1.40;100.00
21588;BME280;10956;48.878;13.316;2023-01-31T13:36:32;94593.72;;;1.46;100.00
21588;BME280;10956;48.878;13.316;2023-01-31T13:39:07;94591.31;;;1.51;100.00
21588;BME280;10956;48.878;13.316;2023-01-31T13:41:36;94576.13;;;1.48;100.00
21588;BME280;10956;48.878;13.316;2023-01-31T13:44:04;94560.94;;;1.65;100.00
21588;BME280;10956;48.878;13.316;2023-01-31T13:46:37;94550.75;;;1.70;100.00
21588;BME280;10956;48.878;13.316;2023-01-31T13:49:18;94532.94;;;1.86;100.00
21588;BME280;10956;48.878;13.316;2023-01-31T13:51:51;94539.69;;;1.94;100.00
21588;BME280;10956;48.878;13.316;2023-01-31T13:54:26;94530.47;;;2.11;100.00
21588;BME280;10956;48.878;13.316;2023-01-31T13:56:56;94547.59;;;2.25;100.00
21588;BME280;10956;48.878;13.316;2023-01-31T13:59:26;94541.22;;;2.21;100.00
21588;BME280;10956;48.878;13.316;2023-01-31T14:01:53;94522.81;;;2.23;100.00
21588;BME280;10956;48.878;13.316;2023-01-31T14:04:24;94540.84;;;2.18;100.00
21588;BME280;10956;48.878;13.316;2023-01-31T14:07:14;94544.81;;;2.20;100.00
21588;BME280;10956;48.878;13.316;2023-01-31T14:09:45;94536.63;;;2.17;100.00
21588;BME280;10956;48.878;13.316;2023-01-31T14:12:35;94525.66;;;2.08;100.00
21588;BME280;10956;48.878;13.316;2023-01-31T14:15:02;94518.50;;;1.97;100.00
21588;BME280;10956;48.878;13.316;2023-01-31T14:20:28;94537.72;;;1.83;100.00
21588;BME280;10956;48.878;13.316;2023-01-31T14:23:42;94534.16;;;1.71;100.00
21588;BME280;10956;48.878;13.316;2023-01-31T14:29:11;94515.97;;;1.71;100.00
21588;BME280;10956;48.878;13.316;2023-01-31T14:31:39;94518.97;;;1.61;100.00
21588;BME280;10956;48.878;13.316;2023-01-31T14:34:16;94522.97;;;1.64;100.00